Time;durP1;ratioP1;P1;durP2;ratioP2;P2;SDS_P1;SDS_P2;PMS_P1;PMS_P2;Temp;Humidity;BMP_temperature;BMP_pressure;BME280_temperature;BME280_humidity;BME280_pressure;Samples;Min_cycle;Max_cycle;Signal;HPM_P1;HPM_P2
2022/10/06 00:01:58;;;;;;;3.20;2.88;;;15.00;65.50;;;;;;5097811;28;20032;-83
2022/10/06 00:04:24;;;;;;;3.22;2.80;;;15.10;65.50;;;;;;5097879;28;20028;-83
2022/10/06 00:06:50;;;;;;;3.47;2.63;;;15.10;66.10;;;;;;5097796;28;20024;-83
2022/10/06 00:09:15;;;;;;;3.38;2.67;;;15.00;65.50;;;;;;5078940;28;20023;-83
2022/10/06 00:11:41;;;;;;;3.70;2.80;;;15.00;65.40;;;;;;5097552;28;20020;-82
2022/10/06 00:14:07;;;;;;;3.17;2.50;;;15.10;65.50;;;;;;5097498;28;20028;-83
2022/10/06 00:16:32;;;;;;;3.42;2.80;;;15.10;65.50;;;;;;5097192;28;20056;-83
2022/10/06 00:18:58;;;;;;;4.40;2.80;;;15.10;65.40;;;;;;5079242;28;20028;-82
2022/10/06 00:21:23;;;;;;;3.20;2.70;;;15.10;65.50;;;;;;5098020;28;20028;-83
2022/10/06 00:23:49;;;;;;;4.07;3.00;;;15.10;65.50;;;;;;5097756;28;20028;-83
2022/10/06 00:26:15;;;;;;;3.03;2.65;;;15.10;65.50;;;;;;5096942;28;20036;-83
2022/10/06 00:28:47;;;;;;;3.30;2.55;;;15.10;66.00;;;;;;5097290;28;20081;-83
2022/10/06 00:31:14;;;;;;;5.03;2.97;;;15.10;65.50;;;;;;5079344;28;20032;-84
2022/10/06 00:33:40;;;;;;;3.83;3.00;;;15.10;65.60;;;;;;5079402;28;20428;-84
2022/10/06 00:36:07;;;;;;;4.63;3.08;;;15.10;65.50;;;;;;5096987;28;20032;-84
2022/10/06 00:38:33;;;;;;;3.60;2.85;;;15.10;65.60;;;;;;5097152;28;20099;-82
2022/10/06 00:40:58;;;;;;;3.50;2.70;;;15.10;65.60;;;;;;5074770;28;20143;-84
2022/10/06 00:43:45;;;;;;;3.15;2.60;;;15.10;65.60;;;;;;5075937;28;20033;-83
2022/10/06 00:46:32;;;;;;;4.47;3.28;;;15.00;65.60;;;;;;5059363;28;20056;-82
2022/10/06 00:49:27;;;;;;;3.03;2.63;;;15.10;65.60;;;;;;5066841;28;20050;-83
2022/10/06 00:52:06;;;;;;;3.63;2.95;;;15.10;65.50;;;;;;5075908;28;20090;-83
2022/10/06 00:54:33;;;;;;;3.00;2.63;;;15.10;65.60;;;;;;5076887;28;20037;-83
2022/10/06 00:56:59;;;;;;;3.63;2.70;;;15.10;65.60;;;;;;5076605;28;20378;-82
2022/10/06 00:59:25;;;;;;;3.30;2.80;;;15.00;66.10;;;;;;5075569;28;20079;-82
2022/10/06 01:02:02;;;;;;;3.97;2.60;;;15.00;65.50;;;;;;5074655;28;20033;-83
2022/10/06 01:04:42;;;;;;;3.85;2.92;;;15.10;65.60;;;;;;5074715;28;20039;-83
2022/10/06 01:07:08;;;;;;;4.15;2.90;;;15.10;65.60;;;;;;5074660;28;20032;-83
2022/10/06 01:09:35;;;;;;;3.88;2.88;;;15.10;65.60;;;;;;5075982;28;20093;-84
2022/10/06 01:12:04;;;;;;;3.22;2.83;;;15.00;65.50;;;;;;5075094;28;20106;-83
2022/10/06 01:14:30;;;;;;;3.75;2.83;;;15.00;65.70;;;;;;5078178;28;20033;-83
2022/10/06 01:17:00;;;;;;;3.55;2.70;;;15.10;65.60;;;;;;5076204;28;20052;-83
2022/10/06 01:19:49;;;;;;;3.00;2.70;;;15.10;65.60;;;;;;5075957;28;20467;-84
2022/10/06 01:22:18;;;;;;;4.90;2.92;;;15.10;65.60;;;;;;5075268;28;20025;-82
2022/10/06 01:24:46;;;;;;;3.83;2.75;;;15.10;65.60;;;;;;5074239;28;20045;-83
2022/10/06 01:27:14;;;;;;;3.97;2.95;;;15.10;65.60;;;;;;5074014;28;20038;-82
2022/10/06 01:29:40;;;;;;;4.38;2.78;;;15.00;65.60;;;;;;5075084;28;20343;-83
2022/10/06 01:32:06;;;;;;;3.10;2.67;;;15.10;65.70;;;;;;5073512;28;20020;-83
2022/10/06 01:34:32;;;;;;;3.85;2.78;;;15.00;66.20;;;;;;5074816;28;20386;-83
2022/10/06 01:36:58;;;;;;;3.47;2.80;;;15.00;65.60;;;;;;5074927;28;20032;-82
2022/10/06 01:39:23;;;;;;;4.70;3.17;;;15.00;65.60;;;;;;5075534;28;20103;-84
2022/10/06 01:41:49;;;;;;;3.13;2.70;;;15.00;65.70;;;;;;5085628;28;20406;-82
2022/10/06 01:44:15;;;;;;;3.03;2.60;;;15.00;65.70;;;;;;5094624;28;20061;-83
2022/10/06 01:46:40;;;;;;;3.53;2.75;;;15.00;65.70;;;;;;5094907;28;20039;-83
2022/10/06 01:49:06;;;;;;;3.63;2.72;;;15.00;65.70;;;;;;5094852;28;20020;-83
2022/10/06 01:51:31;;;;;;;4.28;2.90;;;15.00;65.70;;;;;;5095230;28;20030;-84
2022/10/06 01:53:57;;;;;;;4.20;3.03;;;15.00;65.80;;;;;;5094657;28;20066;-83
2022/10/06 01:56:23;;;;;;;3.38;2.90;;;15.00;65.80;;;;;;5095608;28;20482;-83
2022/10/06 01:58:48;;;;;;;4.07;2.95;;;15.00;65.80;;;;;;5077190;28;20024;-84
2022/10/06 02:01:15;;;;;;;3.63;2.85;;;15.00;65.90;;;;;;5094974;28;20488;-83
2022/10/06 02:03:40;;;;;;;4.00;3.20;;;15.00;65.80;;;;;;5076475;28;20504;-83
2022/10/06 02:06:07;;;;;;;3.58;2.97;;;15.00;65.90;;;;;;5076714;28;20036;-84
2022/10/06 02:08:33;;;;;;;4.82;2.97;;;15.00;65.90;;;;;;5095406;28;20036;-82
2022/10/06 02:11:10;;;;;;;3.17;2.85;;;15.00;65.90;;;;;;5094976;28;20024;-83
2022/10/06 02:13:37;;;;;;;3.92;2.75;;;15.00;66.50;;;;;;5076426;28;20032;-83
2022/10/06 02:16:05;;;;;;;4.22;3.25;;;15.00;65.90;;;;;;5095309;28;20021;-83
2022/10/06 02:18:31;;;;;;;3.30;2.80;;;14.90;65.90;;;;;;5095005;28;20480;-84
2022/10/06 02:20:57;;;;;;;3.42;2.90;;;15.00;65.90;;;;;;5076592;28;20028;-82
2022/10/06 02:23:23;;;;;;;3.25;2.70;;;15.00;65.90;;;;;;5073961;28;20115;-83
2022/10/06 02:25:48;;;;;;;4.00;3.05;;;15.00;65.90;;;;;;5094578;28;20032;-82
2022/10/06 02:28:15;;;;;;;3.88;2.70;;;15.00;66.10;;;;;;5076194;28;20074;-83
2022/10/06 02:30:41;;;;;;;3.55;2.95;;;15.00;66.00;;;;;;5094115;28;20073;-82
2022/10/06 02:33:06;;;;;;;2.70;2.50;;;15.00;66.00;;;;;;5093748;28;20436;-82
2022/10/06 02:35:32;;;;;;;3.90;2.92;;;15.00;66.00;;;;;;5093937;28;20028;-83
2022/10/06 02:37:58;;;;;;;4.25;2.80;;;14.90;66.00;;;;;;5094564;28;20462;-83
2022/10/06 02:40:23;;;;;;;5.13;3.20;;;14.90;66.00;;;;;;5094766;28;20094;-83
2022/10/06 02:42:49;;;;;;;3.20;2.58;;;14.90;66.00;;;;;;5094502;28;20055;-83
2022/10/06 02:45:15;;;;;;;5.40;3.05;;;15.00;66.00;;;;;;5094582;28;20039;-83
2022/10/06 02:47:40;;;;;;;3.25;2.85;;;14.90;66.00;;;;;;5094729;28;20362;-83
2022/10/06 02:50:07;;;;;;;3.08;2.75;;;14.90;66.00;;;;;;5093678;28;20028;-83
2022/10/06 02:52:37;;;;;;;3.58;2.90;;;14.90;66.10;;;;;;5094625;28;20028;-82
2022/10/06 02:55:05;;;;;;;4.00;2.92;;;15.00;66.10;;;;;;5094429;28;20040;-83
2022/10/06 02:57:33;;;;;;;3.47;2.90;;;14.90;66.00;;;;;;5076095;28;20032;-83
2022/10/06 02:59:59;;;;;;;4.47;2.80;;;14.90;66.10;;;;;;5076062;28;20132;-83
2022/10/06 03:02:25;;;;;;;4.55;2.53;;;14.90;66.10;;;;;;5077222;28;20478;-83
2022/10/06 03:04:50;;;;;;;3.17;2.80;;;14.90;66.10;;;;;;5093532;28;20028;-84
2022/10/06 03:07:16;;;;;;;5.57;2.88;;;14.90;66.10;;;;;;5093246;28;20428;-83
2022/10/06 03:09:42;;;;;;;4.32;3.00;;;15.00;66.20;;;;;;5075567;28;20059;-84
2022/10/06 03:12:08;;;;;;;3.72;2.72;;;14.90;66.10;;;;;;5094428;28;20055;-83
2022/10/06 03:14:34;;;;;;;3.10;2.65;;;14.90;66.10;;;;;;5076150;28;20505;-84
2022/10/06 03:16:59;;;;;;;3.33;2.70;;;14.90;66.10;;;;;;5094023;28;20055;-83
2022/10/06 03:19:25;;;;;;;3.13;2.83;;;14.90;66.10;;;;;;5094364;28;20107;-82
2022/10/06 03:21:50;;;;;;;3.22;2.67;;;14.90;66.10;;;;;;5093775;28;20522;-82
2022/10/06 03:24:16;;;;;;;4.38;2.88;;;14.90;66.20;;;;;;5093894;28;20543;-83
2022/10/06 03:26:44;;;;;;;3.50;2.80;;;14.90;66.20;;;;;;5094029;28;20458;-85
2022/10/06 03:29:11;;;;;;;4.45;2.80;;;14.90;66.20;;;;;;5098916;28;20020;-83
2022/10/06 03:31:37;;;;;;;4.18;2.90;;;14.90;66.20;;;;;;5094335;28;20024;-83
2022/10/06 03:34:03;;;;;;;3.60;2.88;;;14.90;66.20;;;;;;5093057;28;20034;-83
2022/10/06 03:36:31;;;;;;;4.03;2.88;;;14.90;66.20;;;;;;5078074;28;20064;-85
2022/10/06 03:38:57;;;;;;;4.15;3.13;;;14.90;66.20;;;;;;5080285;28;20081;-83
2022/10/06 03:41:25;;;;;;;3.03;2.72;;;14.90;66.20;;;;;;5098399;28;20440;-83
2022/10/06 03:43:53;;;;;;;3.72;2.90;;;14.90;66.20;;;;;;5097725;28;20457;-82
2022/10/06 03:46:21;;;;;;;3.00;2.70;;;14.90;66.20;;;;;;5079041;28;20047;-82
2022/10/06 03:48:48;;;;;;;3.38;2.72;;;14.90;66.20;;;;;;5097760;28;20024;-84
2022/10/06 03:51:16;;;;;;;2.97;2.60;;;14.90;66.30;;;;;;5079631;28;20118;-83
2022/10/06 03:53:44;;;;;;;2.92;2.53;;;14.90;66.20;;;;;;5098064;28;20028;-84
2022/10/06 03:56:19;;;;;;;2.70;2.40;;;14.90;66.20;;;;;;5081512;28;20024;-83
2022/10/06 03:58:50;;;;;;;3.50;2.83;;;14.90;66.20;;;;;;5097863;28;20081;-82
2022/10/06 04:01:19;;;;;;;3.35;2.80;;;14.90;66.20;;;;;;5079871;28;20373;-82
2022/10/06 04:03:44;;;;;;;3.92;2.45;;;14.90;66.20;;;;;;5079327;28;20122;-83
2022/10/06 04:06:13;;;;;;;3.88;2.80;;;14.90;66.20;;;;;;5079742;28;20125;-83
2022/10/06 04:08:40;;;;;;;4.13;3.03;;;14.90;66.30;;;;;;5097832;28;20024;-84
2022/10/06 04:11:29;;;;;;;3.25;2.80;;;14.90;66.30;;;;;;5097109;28;20417;-84
2022/10/06 04:14:03;;;;;;;3.88;2.85;;;14.90;66.30;;;;;;5079823;28;20488;-83
2022/10/06 04:16:37;;;;;;;4.68;2.75;;;14.90;66.30;;;;;;5079550;28;20374;-84
2022/10/06 04:19:05;;;;;;;4.13;2.97;;;14.90;66.30;;;;;;5097372;28;20028;-84
2022/10/06 04:21:33;;;;;;;3.67;2.85;;;14.90;66.20;;;;;;5097502;28;20020;-83
2022/10/06 04:23:59;;;;;;;3.45;2.88;;;14.90;66.20;;;;;;5079060;28;20097;-84
2022/10/06 04:26:37;;;;;;;3.10;2.55;;;14.90;66.20;;;;;;5097197;28;20540;-83
2022/10/06 04:29:03;;;;;;;3.60;3.03;;;14.90;66.20;;;;;;5097670;28;20024;-84
2022/10/06 04:31:35;;;;;;;4.00;2.88;;;14.90;66.20;;;;;;5079490;28;20367;-84
2022/10/06 04:34:02;;;;;;;4.15;2.50;;;14.90;66.20;;;;;;5097303;28;20081;-84
2022/10/06 04:36:30;;;;;;;4.20;2.92;;;15.00;66.30;;;;;;5097109;28;20046;-83
2022/10/06 04:39:01;;;;;;;3.05;2.78;;;15.00;66.20;;;;;;5079089;28;20024;-85
2022/10/06 04:41:33;;;;;;;3.58;2.67;;;15.00;66.20;;;;;;5078999;28;20055;-84
2022/10/06 04:44:00;;;;;;;3.20;2.75;;;15.00;66.20;;;;;;5079033;28;20103;-84
2022/10/06 04:46:26;;;;;;;3.72;2.53;;;15.00;66.20;;;;;;5078232;28;20381;-85
2022/10/06 04:48:53;;;;;;;2.90;2.60;;;15.00;66.20;;;;;;5080481;28;20457;-84
2022/10/06 04:51:21;;;;;;;3.35;2.50;;;15.10;66.20;;;;;;5096833;28;20149;-84
2022/10/06 04:53:47;;;;;;;3.35;2.80;;;15.10;66.20;;;;;;5078644;28;20032;-84
2022/10/06 04:56:19;;;;;;;3.97;2.88;;;15.10;66.10;;;;;;5078842;28;20028;-85
2022/10/06 04:58:47;;;;;;;4.07;3.00;;;15.10;66.10;;;;;;5097097;28;20415;-84
2022/10/06 05:01:15;;;;;;;4.63;2.80;;;15.20;66.10;;;;;;5096841;28;20020;-83
2022/10/06 05:03:41;;;;;;;3.50;2.72;;;15.10;66.00;;;;;;5096537;28;20032;-83
2022/10/06 05:06:11;;;;;;;3.03;2.70;;;15.10;66.60;;;;;;5096576;28;20048;-83
2022/10/06 05:08:37;;;;;;;3.75;3.00;;;15.10;66.00;;;;;;5078335;28;20480;-84
2022/10/06 05:11:06;;;;;;;4.07;3.10;;;15.20;66.00;;;;;;5078485;28;20028;-81
2022/10/06 05:13:32;;;;;;;3.20;2.70;;;15.20;66.00;;;;;;5096682;28;20062;-83
2022/10/06 05:15:59;;;;;;;4.30;2.88;;;15.20;66.00;;;;;;5097197;28;20024;-85
2022/10/06 05:18:26;;;;;;;3.47;2.47;;;15.20;65.90;;;;;;5096579;28;20028;-84
2022/10/06 05:20:59;;;;;;;3.40;2.83;;;15.20;65.90;;;;;;5096619;28;20028;-84
2022/10/06 05:23:26;;;;;;;3.60;2.78;;;15.20;65.90;;;;;;5096555;28;20024;-83
2022/10/06 05:25:53;;;;;;;3.55;2.90;;;15.20;65.90;;;;;;5096046;28;20089;-84
2022/10/06 05:28:20;;;;;;;2.90;2.28;;;15.30;65.90;;;;;;5096640;28;20024;-84
2022/10/06 05:31:02;;;;;;;3.60;2.50;;;15.30;65.90;;;;;;5096121;28;20024;-83
2022/10/06 05:33:30;;;;;;;4.00;2.70;;;15.30;65.80;;;;;;5096583;28;20111;-83
2022/10/06 05:35:58;;;;;;;3.08;2.63;;;15.30;65.70;;;;;;5077986;28;20036;-84
2022/10/06 05:38:25;;;;;;;2.85;2.55;;;15.30;65.70;;;;;;5077724;28;20055;-83
2022/10/06 05:40:59;;;;;;;4.05;2.80;;;15.30;65.70;;;;;;5078631;28;20114;-83
2022/10/06 05:43:25;;;;;;;2.88;2.40;;;15.30;65.60;;;;;;5097057;28;20032;-84
2022/10/06 05:45:56;;;;;;;4.53;2.65;;;15.30;65.60;;;;;;5100398;28;20111;-84
2022/10/06 05:48:21;;;;;;;3.45;2.58;;;15.40;65.60;;;;;;5095891;28;20024;-83
2022/10/06 05:50:56;;;;;;;2.92;2.30;;;15.30;65.60;;;;;;5096170;28;20024;-84
2022/10/06 05:53:21;;;;;;;3.13;2.80;;;15.30;65.50;;;;;;5096024;28;20477;-84
2022/10/06 05:55:47;;;;;;;3.53;2.75;;;15.30;65.50;;;;;;5095907;28;20028;-84
2022/10/06 05:58:13;;;;;;;4.25;2.90;;;15.40;65.60;;;;;;5094860;28;20496;-84
2022/10/06 06:00:39;;;;;;;4.22;2.80;;;15.40;65.60;;;;;;5095764;28;20442;-84
2022/10/06 06:03:08;;;;;;;4.18;2.70;;;15.40;65.50;;;;;;5096202;28;20101;-84
2022/10/06 06:05:38;;;;;;;3.17;2.50;;;15.40;65.40;;;;;;5076427;28;20547;-82
2022/10/06 06:08:09;;;;;;;3.58;2.50;;;15.40;65.40;;;;;;5095123;28;20377;-84
2022/10/06 06:10:35;;;;;;;2.65;2.45;;;15.50;65.40;;;;;;5094949;28;20030;-83
2022/10/06 06:13:00;;;;;;;4.50;2.85;;;15.50;65.40;;;;;;5094047;28;20106;-82
2022/10/06 06:18:12;;;;;;;2.97;2.47;;;15.50;65.20;;;;;;5091524;28;20091;-85
2022/10/06 06:20:37;;;;;;;3.25;2.60;;;15.60;65.10;;;;;;5094181;28;20462;-82
2022/10/06 06:23:03;;;;;;;3.40;2.72;;;15.60;65.10;;;;;;5094780;28;20032;-81
2022/10/06 06:25:29;;;;;;;3.08;2.70;;;15.60;65.10;;;;;;5094482;28;20024;-83
2022/10/06 06:27:55;;;;;;;3.50;2.78;;;15.60;65.00;;;;;;5094336;28;20076;-82
2022/10/06 06:30:21;;;;;;;3.88;2.80;;;15.70;65.00;;;;;;5094072;28;20519;-82
2022/10/06 06:32:47;;;;;;;2.92;2.42;;;15.70;65.00;;;;;;5094644;28;20117;-85
2022/10/06 06:35:13;;;;;;;3.38;2.63;;;15.80;64.90;;;;;;5077366;28;20576;-83
2022/10/06 06:37:38;;;;;;;3.70;2.53;;;15.80;64.80;;;;;;5079014;28;20036;-83
2022/10/06 06:40:04;;;;;;;3.17;2.50;;;15.80;64.70;;;;;;5095302;28;20024;-84
2022/10/06 06:42:30;;;;;;;3.60;2.60;;;15.90;64.70;;;;;;5094003;28;20052;-81
2022/10/06 06:44:56;;;;;;;4.10;2.70;;;15.90;64.70;;;;;;5094273;28;20032;-84
2022/10/06 06:47:21;;;;;;;3.13;2.38;;;16.00;64.70;;;;;;5075607;28;20032;-84
2022/10/06 06:49:48;;;;;;;3.92;2.35;;;16.00;64.60;;;;;;5093369;28;20044;-85
2022/10/06 06:52:15;;;;;;;5.15;2.70;;;16.00;64.50;;;;;;5093918;28;20378;-83
2022/10/06 06:54:40;;;;;;;4.80;2.65;;;16.00;64.50;;;;;;5076189;28;20027;-84
2022/10/06 06:57:06;;;;;;;2.88;2.50;;;16.00;64.50;;;;;;5094479;28;20066;-84
2022/10/06 06:59:32;;;;;;;2.58;2.28;;;16.10;64.40;;;;;;5076148;28;20031;-85
2022/10/06 07:01:59;;;;;;;5.47;2.60;;;16.10;64.40;;;;;;5076570;28;20028;-83
2022/10/06 07:04:25;;;;;;;7.03;2.35;;;16.20;64.30;;;;;;5094106;28;20044;-82
2022/10/06 07:06:57;;;;;;;5.07;2.63;;;16.30;64.20;;;;;;5094044;28;20024;-83
2022/10/06 07:09:27;;;;;;;5.55;2.55;;;16.30;64.10;;;;;;5076843;28;20028;-85
2022/10/06 07:11:56;;;;;;;3.72;2.60;;;16.30;63.90;;;;;;5095007;28;20064;-83
2022/10/06 07:14:23;;;;;;;3.00;2.60;;;16.40;63.80;;;;;;5094279;28;20099;-84
2022/10/06 07:25:27;;;;;;;4.57;2.80;;;16.50;63.50;;;;;;5093932;28;20101;-82
2022/10/06 07:27:53;;;;;;;3.58;2.15;;;16.60;63.40;;;;;;5095789;28;20028;-83
2022/10/06 07:30:25;;;;;;;3.35;2.45;;;16.70;63.30;;;;;;5094076;28;20032;-84
2022/10/06 07:32:52;;;;;;;3.03;2.28;;;16.80;63.30;;;;;;5075798;28;20081;-84
2022/10/06 07:35:19;;;;;;;3.47;2.30;;;16.90;63.10;;;;;;5093795;28;20021;-83
2022/10/06 07:37:45;;;;;;;3.03;2.30;;;16.90;63.00;;;;;;5094058;28;20020;-83
2022/10/06 07:40:12;;;;;;;3.00;2.40;;;17.00;62.90;;;;;;5094520;28;20032;-82
2022/10/06 07:42:50;;;;;;;3.78;2.45;;;17.00;62.80;;;;;;5075258;28;20060;-84
2022/10/06 07:48:02;;;;;;;2.80;2.42;;;17.10;62.60;;;;;;5093701;28;20036;-83
2022/10/06 07:50:28;;;;;;;4.00;2.70;;;17.20;62.60;;;;;;5075491;28;20080;-83
2022/10/06 07:53:00;;;;;;;3.70;2.55;;;17.20;62.50;;;;;;5075497;28;20462;-83
2022/10/06 07:55:26;;;;;;;2.95;2.50;;;17.20;62.40;;;;;;5075584;28;20028;-83
2022/10/06 07:57:51;;;;;;;2.47;2.28;;;17.30;62.50;;;;;;5094295;28;20103;-84
2022/10/06 08:00:21;;;;;;;3.53;2.63;;;17.30;62.40;;;;;;5093995;28;20423;-84
2022/10/06 08:02:47;;;;;;;3.97;2.55;;;17.30;62.20;;;;;;5093849;28;20028;-82
2022/10/06 08:05:13;;;;;;;5.13;2.50;;;17.40;62.30;;;;;;5095701;28;20532;-83
2022/10/06 08:07:39;;;;;;;3.67;2.38;;;17.40;62.20;;;;;;5094061;28;20027;-83
2022/10/06 08:10:05;;;;;;;3.95;2.38;;;17.40;62.10;;;;;;5075583;28;20447;-84
2022/10/06 08:12:33;;;;;;;3.25;2.53;;;17.40;62.00;;;;;;5093306;28;20523;-84
2022/10/06 08:15:05;;;;;;;3.85;2.40;;;17.50;62.00;;;;;;5093608;28;20032;-83
2022/10/06 08:17:32;;;;;;;2.72;2.25;;;17.50;61.90;;;;;;5075434;28;20078;-83
2022/10/06 08:19:58;;;;;;;3.25;2.53;;;17.50;61.90;;;;;;5093528;28;20647;-82
2022/10/06 08:22:28;;;;;;;3.20;2.30;;;17.50;61.90;;;;;;5097040;28;20526;-83
2022/10/06 08:24:56;;;;;;;3.50;2.05;;;17.50;61.80;;;;;;5097893;28;20069;-84
2022/10/06 08:27:35;;;;;;;2.25;2.08;;;17.50;61.80;;;;;;5097582;28;20024;-86
2022/10/06 08:30:06;;;;;;;2.90;2.10;;;17.50;61.80;;;;;;5097681;28;20070;-83
2022/10/06 08:32:32;;;;;;;3.03;2.10;;;17.50;61.70;;;;;;5079366;28;20118;-84
2022/10/06 08:34:58;;;;;;;3.33;2.40;;;17.50;61.60;;;;;;5079207;28;20021;-84
2022/10/06 08:37:25;;;;;;;2.92;2.20;;;17.60;61.60;;;;;;5079093;28;20495;-82
2022/10/06 08:39:52;;;;;;;2.92;2.30;;;17.60;61.60;;;;;;5097162;28;20103;-84
2022/10/06 08:42:47;;;;;;;3.05;2.05;;;17.60;61.50;;;;;;5097297;28;20052;-83
2022/10/06 08:45:13;;;;;;;2.30;2.08;;;17.60;61.30;;;;;;5094734;28;20139;-85
2022/10/06 08:47:49;;;;;;;3.33;2.38;;;17.60;61.40;;;;;;5097612;28;20046;-82
2022/10/06 08:50:15;;;;;;;2.92;2.10;;;17.60;61.30;;;;;;5079209;28;20519;-83
2022/10/06 08:52:49;;;;;;;4.20;2.30;;;17.70;61.30;;;;;;5097637;28;20410;-83
2022/10/06 08:55:33;;;;;;;4.47;2.30;;;17.70;61.20;;;;;;5079536;28;20032;-84
2022/10/06 08:58:13;;;;;;;2.90;2.35;;;17.70;61.10;;;;;;5098194;28;20035;-83
2022/10/06 09:00:39;;;;;;;3.65;2.00;;;17.70;61.10;;;;;;5097962;28;20024;-83
2022/10/06 09:03:06;;;;;;;2.30;2.10;;;17.80;61.10;;;;;;5097378;28;20016;-85
2022/10/06 09:05:33;;;;;;;2.85;2.10;;;17.80;61.00;;;;;;5097531;28;20426;-83
2022/10/06 09:08:40;;;;;;;2.53;2.03;;;17.80;61.00;;;;;;5079817;28;20032;-82
2022/10/06 09:11:30;;;;;;;2.55;2.22;;;17.80;60.80;;;;;;5097560;28;20016;-82
2022/10/06 09:14:27;;;;;;;2.10;1.83;;;17.90;60.90;;;;;;5098365;28;20035;-82
2022/10/06 09:16:59;;;;;;;2.72;2.20;;;17.90;60.70;;;;;;5080713;28;20036;-83
2022/10/06 09:19:38;;;;;;;2.63;2.05;;;17.90;60.60;;;;;;5097248;28;20024;-85
2022/10/06 09:22:10;;;;;;;2.10;1.80;;;18.00;60.50;;;;;;5079379;28;20031;-84
2022/10/06 09:24:44;;;;;;;3.83;2.10;;;17.90;60.40;;;;;;5079993;28;20036;-84
2022/10/06 09:27:36;;;;;;;2.03;1.85;;;17.90;60.30;;;;;;5079947;28;20020;-84
2022/10/06 09:30:07;;;;;;;2.15;1.95;;;18.00;60.20;;;;;;5085441;28;20032;-84
2022/10/06 09:32:33;;;;;;;2.40;2.00;;;18.00;60.30;;;;;;5077617;28;20024;-82
2022/10/06 09:34:59;;;;;;;2.67;2.10;;;17.90;60.20;;;;;;5097306;28;20028;-83
2022/10/06 09:37:26;;;;;;;2.13;1.92;;;18.00;60.20;;;;;;5097196;28;20024;-84
2022/10/06 09:39:52;;;;;;;2.40;1.92;;;17.90;60.00;;;;;;5079365;28;20027;-83
2022/10/06 09:42:28;;;;;;;2.28;2.05;;;18.00;60.10;;;;;;5078643;28;20056;-83
2022/10/06 09:45:15;;;;;;;3.53;2.03;;;17.90;60.00;;;;;;5078849;28;20050;-83
2022/10/06 09:47:44;;;;;;;2.30;2.05;;;17.90;60.00;;;;;;5096661;28;20024;-84
2022/10/06 09:50:27;;;;;;;1.92;1.83;;;18.00;60.00;;;;;;5077861;28;20028;-85
2022/10/06 09:53:04;;;;;;;2.53;1.80;;;18.00;59.90;;;;;;5077379;28;20362;-83
2022/10/06 09:55:36;;;;;;;2.22;1.75;;;18.00;60.00;;;;;;5077828;28;20035;-84
2022/10/06 09:58:17;;;;;;;2.35;1.65;;;18.00;60.00;;;;;;5095681;28;20029;-84
2022/10/06 10:01:21;;;;;;;2.20;2.00;;;18.00;59.90;;;;;;5078014;28;20085;-84
2022/10/06 10:03:50;;;;;;;1.83;1.73;;;18.00;59.70;;;;;;5043866;28;20117;-83
2022/10/06 10:06:30;;;;;;;2.92;1.90;;;18.00;59.90;;;;;;5077066;28;20027;-83
2022/10/06 10:09:20;;;;;;;4.00;2.10;;;18.00;59.70;;;;;;5096575;28;20020;-85
2022/10/06 10:12:30;;;;;;;3.17;2.03;;;18.00;59.60;;;;;;5077577;28;20024;-83
2022/10/06 10:15:22;;;;;;;3.47;2.10;;;18.00;59.60;;;;;;5095813;28;20028;-84
2022/10/06 10:17:57;;;;;;;2.25;1.85;;;18.00;59.60;;;;;;5095526;28;20016;-84
2022/10/06 10:20:37;;;;;;;2.17;1.80;;;18.00;59.60;;;;;;5095044;28;20382;-84
2022/10/06 10:23:29;;;;;;;1.63;1.42;;;18.10;59.60;;;;;;5095256;28;20035;-83
2022/10/06 10:26:00;;;;;;;2.10;1.90;;;18.10;59.20;;;;;;5077415;28;20032;-82
2022/10/06 10:28:50;;;;;;;2.30;2.10;;;18.10;59.30;;;;;;5095664;28;20024;-83
2022/10/06 10:31:54;;;;;;;1.80;1.70;;;18.20;59.20;;;;;;5095450;28;20035;-83
2022/10/06 10:34:38;;;;;;;2.17;1.98;;;18.20;58.70;;;;;;4977175;28;20460;-84
2022/10/06 10:37:11;;;;;;;1.98;1.75;;;18.20;58.80;;;;;;4993424;28;20026;-84
2022/10/06 10:39:51;;;;;;;2.22;1.90;;;18.30;58.80;;;;;;5057852;28;20067;-83
2022/10/06 10:42:23;;;;;;;2.00;1.70;;;18.30;58.60;;;;;;5094750;28;20101;-83
2022/10/06 10:45:15;;;;;;;1.90;1.70;;;18.30;58.70;;;;;;5094301;28;20036;-85
2022/10/06 10:47:43;;;;;;;1.77;1.60;;;18.40;58.30;;;;;;5094575;28;20024;-85
2022/10/06 10:50:24;;;;;;;2.38;1.85;;;18.40;58.50;;;;;;5094469;28;20455;-82
2022/10/06 10:52:58;;;;;;;2.20;2.00;;;18.40;58.20;;;;;;5094605;28;20020;-83
2022/10/06 10:55:40;;;;;;;2.15;1.80;;;18.40;58.30;;;;;;5077591;28;20107;-86
2022/10/06 10:58:25;;;;;;;1.73;1.63;;;18.40;58.00;;;;;;5077739;28;20035;-84
2022/10/06 11:01:11;;;;;;;3.13;1.80;;;18.50;58.20;;;;;;5078441;28;20024;-84
2022/10/06 11:03:36;;;;;;;4.00;1.88;;;18.50;57.80;;;;;;5093889;28;20070;-82
2022/10/06 11:06:39;;;;;;;3.15;1.90;;;18.50;58.00;;;;;;5094183;28;20438;-82
2022/10/06 11:09:14;;;;;;;2.55;1.70;;;18.50;57.80;;;;;;5004636;28;20516;-84
2022/10/06 11:12:17;;;;;;;1.70;1.60;;;18.50;57.80;;;;;;5076167;28;20028;-85
2022/10/06 11:14:52;;;;;;;1.42;1.33;;;18.50;57.60;;;;;;5094248;28;20024;-83
2022/10/06 11:17:43;;;;;;;1.63;1.50;;;18.50;57.70;;;;;;5094510;28;20035;-85
2022/10/06 11:20:18;;;;;;;2.00;1.80;;;18.60;57.70;;;;;;5094381;28;20038;-84
2022/10/06 11:22:58;;;;;;;1.80;1.70;;;18.50;57.70;;;;;;5094125;28;20032;-83
2022/10/06 11:25:43;;;;;;;1.65;1.55;;;18.60;57.60;;;;;;5075765;28;20036;-83
2022/10/06 11:28:21;;;;;;;2.75;1.70;;;18.60;57.40;;;;;;5082431;28;20024;-84
2022/10/06 11:31:13;;;;;;;2.85;1.75;;;18.50;57.30;;;;;;5094573;28;20056;-82
2022/10/06 11:33:47;;;;;;;2.00;1.75;;;18.60;57.30;;;;;;5093948;28;20032;-83
2022/10/06 11:36:25;;;;;;;2.05;1.85;;;18.60;57.20;;;;;;5093902;28;20025;-83
2022/10/06 11:39:06;;;;;;;3.90;1.88;;;18.60;57.20;;;;;;5094021;28;20027;-83
2022/10/06 11:41:40;;;;;;;1.80;1.70;;;18.60;57.10;;;;;;5094077;28;20386;-84
2022/10/06 11:44:17;;;;;;;2.17;1.98;;;18.60;57.10;;;;;;5094773;28;20077;-84
2022/10/06 11:46:59;;;;;;;3.88;1.60;;;18.60;57.10;;;;;;5076113;28;20401;-83
2022/10/06 11:49:27;;;;;;;3.65;1.60;;;18.60;57.10;;;;;;5077728;28;20028;-83
2022/10/06 11:52:16;;;;;;;2.95;1.90;;;18.60;57.00;;;;;;5075999;28;20020;-83
2022/10/06 11:54:55;;;;;;;1.75;1.65;;;18.70;56.80;;;;;;5095612;28;20032;-84
2022/10/06 11:57:26;;;;;;;2.08;1.90;;;18.60;56.90;;;;;;5081897;28;20115;-88
2022/10/06 12:00:12;;;;;;;1.90;1.80;;;18.60;56.90;;;;;;5102650;28;20039;-86
2022/10/06 12:02:39;;;;;;;4.85;2.20;;;18.70;56.90;;;;;;5102808;28;20484;-87
2022/10/06 12:05:08;;;;;;;2.22;1.70;;;18.70;56.80;;;;;;5101358;28;20036;-87
2022/10/06 12:07:58;;;;;;;1.83;1.70;;;18.70;56.80;;;;;;5101404;28;20032;-86
2022/10/06 12:10:26;;;;;;;1.98;1.80;;;18.70;56.50;;;;;;5100813;28;20047;-86
2022/10/06 12:13:36;;;;;;;2.60;1.70;;;18.70;56.70;;;;;;5081589;28;20496;-86
2022/10/06 12:16:34;;;;;;;1.83;1.70;;;18.70;56.50;;;;;;5086411;28;20058;-82
2022/10/06 12:19:18;;;;;;;1.63;1.52;;;18.70;56.40;;;;;;5080970;28;20020;-86
2022/10/06 12:21:47;;;;;;;1.73;1.63;;;18.70;56.60;;;;;;5098943;28;20024;-83
2022/10/06 12:24:40;;;;;;;2.30;1.90;;;18.70;56.50;;;;;;5100114;28;20466;-89
2022/10/06 12:27:25;;;;;;;3.60;1.90;;;18.70;56.30;;;;;;5088055;28;20115;-85
2022/10/06 12:30:12;;;;;;;1.90;1.80;;;18.70;56.30;;;;;;5099145;28;20114;-85
2022/10/06 12:32:48;;;;;;;1.83;1.67;;;18.80;56.40;;;;;;5098256;28;20028;-87
2022/10/06 12:35:17;;;;;;;2.67;1.83;;;18.80;56.30;;;;;;5081263;28;20126;-82
2022/10/06 12:37:45;;;;;;;1.80;1.70;;;18.80;56.30;;;;;;5081975;28;20454;-85
2022/10/06 12:40:46;;;;;;;2.25;1.92;;;18.80;56.30;;;;;;5100729;28;20032;-87
2022/10/06 12:43:17;;;;;;;3.67;1.98;;;18.90;56.00;;;;;;5077989;28;20044;-86
2022/10/06 12:45:57;;;;;;;2.15;1.95;;;18.90;56.20;;;;;;5077927;28;20112;-84
2022/10/06 12:48:45;;;;;;;1.77;1.67;;;18.90;56.10;;;;;;5081459;28;20025;-84
2022/10/06 12:51:33;;;;;;;1.98;1.80;;;19.00;55.90;;;;;;5079506;28;20031;-87
2022/10/06 12:54:01;;;;;;;1.98;1.63;;;19.00;55.70;;;;;;5078068;28;20123;-85
2022/10/06 12:56:30;;;;;;;2.80;2.20;;;19.00;55.90;;;;;;5078961;28;20029;-86
2022/10/06 12:58:56;;;;;;;2.42;2.00;;;19.10;55.80;;;;;;5078548;28;20020;-85
2022/10/06 13:01:23;;;;;;;2.08;1.88;;;19.10;55.70;;;;;;5079023;28;20039;-82
2022/10/06 13:03:51;;;;;;;2.30;2.10;;;19.20;55.70;;;;;;5075613;28;20024;-86
2022/10/06 13:06:22;;;;;;;2.15;1.95;;;19.20;55.60;;;;;;5077783;28;20374;-87
2022/10/06 13:09:03;;;;;;;2.20;1.90;;;19.30;55.40;;;;;;5077368;28;20051;-87
2022/10/06 13:11:29;;;;;;;2.10;1.95;;;19.40;55.20;;;;;;5074821;28;20025;-85
2022/10/06 13:14:00;;;;;;;2.40;2.00;;;19.40;55.30;;;;;;5078566;28;20104;-86
2022/10/06 13:16:29;;;;;;;1.80;1.70;;;19.50;55.20;;;;;;5077478;28;20021;-87
2022/10/06 13:18:58;;;;;;;2.05;1.70;;;19.60;55.10;;;;;;5077871;28;20036;-82
2022/10/06 13:21:24;;;;;;;2.13;1.80;;;19.70;55.00;;;;;;5075748;28;20024;-83
2022/10/06 13:23:51;;;;;;;2.60;1.80;;;19.80;54.90;;;;;;5075517;28;20115;-86
2022/10/06 13:26:23;;;;;;;2.28;1.70;;;19.90;54.70;;;;;;5074525;28;20040;-86